sensor_id;sensor_type;location;lat;lon;timestamp;pressure;altitude;pressure_sealevel;temperature;humidity
54870;BME280;40756;-37.950;145.008;2023-02-21T00:00:28;102658.59;;;19.69;40.23
54870;BME280;40756;-37.950;145.008;2023-02-21T00:02:58;102659.95;;;19.71;39.66
54870;BME280;40756;-37.950;145.008;2023-02-21T00:05:27;102661.12;;;19.57;39.77
54870;BME280;40756;-37.950;145.008;2023-02-21T00:07:57;102662.30;;;19.51;39.97
54870;BME280;40756;-37.950;145.008;2023-02-21T00:10:26;102656.91;;;19.36;40.05
54870;BME280;40756;-37.950;145.008;2023-02-21T00:12:56;102656.73;;;19.68;39.58
54870;BME280;40756;-37.950;145.008;2023-02-21T00:15:25;102657.41;;;19.75;39.17
54870;BME280;40756;-37.950;145.008;2023-02-21T00:17:55;102657.96;;;20.10;39.00
54870;BME280;40756;-37.950;145.008;2023-02-21T00:20:25;102660.97;;;20.49;38.44
54870;BME280;40756;-37.950;145.008;2023-02-21T00:22:55;102663.16;;;20.96;38.39
54870;BME280;40756;-37.950;145.008;2023-02-21T00:25:24;102656.78;;;20.87;38.33
54870;BME280;40756;-37.950;145.008;2023-02-21T00:27:54;102661.26;;;20.75;37.57
54870;BME280;40756;-37.950;145.008;2023-02-21T00:30:23;102654.69;;;20.93;36.72
54870;BME280;40756;-37.950;145.008;2023-02-21T00:32:53;102658.59;;;20.49;37.06
54870;BME280;40756;-37.950;145.008;2023-02-21T00:35:22;102657.15;;;20.84;37.53
54870;BME280;40756;-37.950;145.008;2023-02-21T00:37:52;102658.44;;;20.45;37.89
54870;BME280;40756;-37.950;145.008;2023-02-21T00:40:22;102666.07;;;20.59;37.40
54870;BME280;40756;-37.950;145.008;2023-02-21T00:42:51;102665.66;;;20.00;37.33
54870;BME280;40756;-37.950;145.008;2023-02-21T00:45:20;102665.85;;;20.24;37.26
54870;BME280;40756;-37.950;145.008;2023-02-21T00:47:50;102663.30;;;20.97;37.08
54870;BME280;40756;-37.950;145.008;2023-02-21T00:50:19;102663.37;;;19.93;37.07
54870;BME280;40756;-37.950;145.008;2023-02-21T00:52:49;102661.52;;;20.91;36.34
54870;BME280;40756;-37.950;145.008;2023-02-21T00:55:18;102660.52;;;21.11;36.12
54870;BME280;40756;-37.950;145.008;2023-02-21T00:57:48;102661.60;;;20.79;35.73
54870;BME280;40756;-37.950;145.008;2023-02-21T01:00:19;102657.65;;;21.13;35.66
54870;BME280;40756;-37.950;145.008;2023-02-21T01:02:50;102654.36;;;20.92;35.59
54870;BME280;40756;-37.950;145.008;2023-02-21T01:05:19;102653.12;;;21.30;35.73
54870;BME280;40756;-37.950;145.008;2023-02-21T01:07:49;102655.13;;;21.09;35.22
54870;BME280;40756;-37.950;145.008;2023-02-21T01:10:18;102656.97;;;21.43;35.82
54870;BME280;40756;-37.950;145.008;2023-02-21T01:12:48;102657.99;;;20.90;34.58
54870;BME280;40756;-37.950;145.008;2023-02-21T01:15:17;102649.37;;;21.03;33.99
54870;BME280;40756;-37.950;145.008;2023-02-21T01:17:47;102651.12;;;21.08;33.54
54870;BME280;40756;-37.950;145.008;2023-02-21T01:20:16;102654.02;;;21.26;34.02
54870;BME280;40756;-37.950;145.008;2023-02-21T01:22:46;102641.70;;;21.53;33.27
54870;BME280;40756;-37.950;145.008;2023-02-21T01:25:16;102645.45;;;21.54;33.03
54870;BME280;40756;-37.950;145.008;2023-02-21T01:27:46;102644.21;;;21.50;33.62
54870;BME280;40756;-37.950;145.008;2023-02-21T01:30:15;102642.54;;;21.83;33.33
54870;BME280;40756;-37.950;145.008;2023-02-21T01:32:45;102633.48;;;22.17;32.74
54870;BME280;40756;-37.950;145.008;2023-02-21T01:35:15;102639.18;;;22.61;32.48
54870;BME280;40756;-37.950;145.008;2023-02-21T01:37:45;102642.97;;;21.93;31.77
54870;BME280;40756;-37.950;145.008;2023-02-21T01:40:16;102641.07;;;21.89;32.13
54870;BME280;40756;-37.950;145.008;2023-02-21T01:42:45;102639.20;;;22.36;32.19
54870;BME280;40756;-37.950;145.008;2023-02-21T01:45:42;102626.54;;;22.36;31.67
54870;BME280;40756;-37.950;145.008;2023-02-21T01:48:16;102631.76;;;22.01;32.71
54870;BME280;40756;-37.950;145.008;2023-02-21T01:50:47;102619.46;;;22.73;32.06
54870;BME280;40756;-37.950;145.008;2023-02-21T01:53:18;102625.45;;;22.53;31.39
54870;BME280;40756;-37.950;145.008;2023-02-21T01:55:49;102624.11;;;21.93;31.74
54870;BME280;40756;-37.950;145.008;2023-02-21T01:58:21;102616.96;;;22.50;31.42
54870;BME280;40756;-37.950;145.008;2023-02-21T02:00:52;102609.68;;;22.89;31.49
54870;BME280;40756;-37.950;145.008;2023-02-21T02:03:22;102613.60;;;22.13;32.30
54870;BME280;40756;-37.950;145.008;2023-02-21T02:05:58;102606.57;;;22.77;32.20
54870;BME280;40756;-37.950;145.008;2023-02-21T02:08:30;102607.33;;;22.87;32.16
54870;BME280;40756;-37.950;145.008;2023-02-21T02:11:05;102605.42;;;22.61;32.15
54870;BME280;40756;-37.950;145.008;2023-02-21T02:13:49;102604.13;;;22.70;32.88
54870;BME280;40756;-37.950;145.008;2023-02-21T02:16:29;102605.47;;;22.50;32.48
54870;BME280;40756;-37.950;145.008;2023-02-21T02:19:18;102604.13;;;22.71;31.70
54870;BME280;40756;-37.950;145.008;2023-02-21T02:22:16;102600.38;;;22.83;31.66
54870;BME280;40756;-37.950;145.008;2023-02-21T02:24:58;102600.30;;;23.61;31.30
54870;BME280;40756;-37.950;145.008;2023-02-21T02:27:59;102598.49;;;23.71;30.61
54870;BME280;40756;-37.950;145.008;2023-02-21T02:30:56;102602.71;;;23.72;30.59
54870;BME280;40756;-37.950;145.008;2023-02-21T02:34:47;102604.33;;;23.61;29.68
54870;BME280;40756;-37.950;145.008;2023-02-21T02:37:24;102598.82;;;23.57;30.32
54870;BME280;40756;-37.950;145.008;2023-02-21T02:40:04;102602.88;;;24.88;30.17
54870;BME280;40756;-37.950;145.008;2023-02-21T02:42:45;102604.14;;;24.12;29.26
54870;BME280;40756;-37.950;145.008;2023-02-21T02:45:22;102595.53;;;24.08;29.62
54870;BME280;40756;-37.950;145.008;2023-02-21T02:47:57;102586.66;;;24.23;29.12
54870;BME280;40756;-37.950;145.008;2023-02-21T02:50:30;102598.86;;;24.76;28.42
54870;BME280;40756;-37.950;145.008;2023-02-21T02:53:02;102588.09;;;24.20;28.37
54870;BME280;40756;-37.950;145.008;2023-02-21T02:55:38;102585.68;;;24.65;27.87
54870;BME280;40756;-37.950;145.008;2023-02-21T02:58:11;102593.11;;;25.01;27.38
54870;BME280;40756;-37.950;145.008;2023-02-21T03:00:44;102593.38;;;25.27;26.28
54870;BME280;40756;-37.950;145.008;2023-02-21T03:03:36;102585.22;;;25.83;25.22
54870;BME280;40756;-37.950;145.008;2023-02-21T03:06:22;102593.91;;;26.18;24.28
54870;BME280;40756;-37.950;145.008;2023-02-21T03:08:59;102594.49;;;26.22;24.16
54870;BME280;40756;-37.950;145.008;2023-02-21T03:11:30;102587.67;;;25.39;23.72
54870;BME280;40756;-37.950;145.008;2023-02-21T03:14:06;102592.90;;;26.51;23.97
54870;BME280;40756;-37.950;145.008;2023-02-21T03:16:41;102585.67;;;25.24;23.31
54870;BME280;40756;-37.950;145.008;2023-02-21T03:19:15;102590.44;;;25.90;24.25
54870;BME280;40756;-37.950;145.008;2023-02-21T03:21:49;102585.86;;;26.24;24.01
54870;BME280;40756;-37.950;145.008;2023-02-21T03:24:22;102595.68;;;26.42;23.53
54870;BME280;40756;-37.950;145.008;2023-02-21T03:26:55;102572.98;;;26.31;23.09
54870;BME280;40756;-37.950;145.008;2023-02-21T03:29:27;102580.01;;;26.35;22.98
54870;BME280;40756;-37.950;145.008;2023-02-21T03:32:00;102579.61;;;26.00;23.31
54870;BME280;40756;-37.950;145.008;2023-02-21T03:34:31;102579.67;;;26.79;23.82
54870;BME280;40756;-37.950;145.008;2023-02-21T03:37:01;102587.11;;;25.99;23.26
54870;BME280;40756;-37.950;145.008;2023-02-21T03:39:31;102577.32;;;26.26;23.96
54870;BME280;40756;-37.950;145.008;2023-02-21T03:42:01;102573.85;;;26.17;23.24
54870;BME280;40756;-37.950;145.008;2023-02-21T03:44:30;102568.28;;;26.73;22.99
54870;BME280;40756;-37.950;145.008;2023-02-21T03:46:59;102572.02;;;25.33;23.11
54870;BME280;40756;-37.950;145.008;2023-02-21T03:49:29;102564.95;;;26.13;22.87
54870;BME280;40756;-37.950;145.008;2023-02-21T03:51:58;102562.12;;;26.16;23.47
54870;BME280;40756;-37.950;145.008;2023-02-21T03:54:27;102551.61;;;26.61;23.14
54870;BME280;40756;-37.950;145.008;2023-02-21T03:57:02;102549.79;;;26.56;23.44
54870;BME280;40756;-37.950;145.008;2023-02-21T03:59:31;102553.52;;;24.78;24.22
54870;BME280;40756;-37.950;145.008;2023-02-21T04:02:01;102558.84;;;24.34;23.56
54870;BME280;40756;-37.950;145.008;2023-02-21T04:04:30;102550.75;;;24.10;23.62
54870;BME280;40756;-37.950;145.008;2023-02-21T04:06:59;102547.78;;;23.65;24.60
54870;BME280;40756;-37.950;145.008;2023-02-21T04:09:28;102544.39;;;24.51;24.11
54870;BME280;40756;-37.950;145.008;2023-02-21T04:11:58;102549.67;;;24.87;24.26
54870;BME280;40756;-37.950;145.008;2023-02-21T04:14:27;102547.64;;;23.14;25.51
54870;BME280;40756;-37.950;145.008;2023-02-21T04:16:57;102542.07;;;23.31;26.06
54870;BME280;40756;-37.950;145.008;2023-02-21T04:19:26;102540.21;;;23.27;25.43
54870;BME280;40756;-37.950;145.008;2023-02-21T04:21:56;102537.69;;;23.24;24.69
54870;BME280;40756;-37.950;145.008;2023-02-21T04:24:25;102540.74;;;24.82;24.05
54870;BME280;40756;-37.950;145.008;2023-02-21T04:26:55;102547.85;;;24.73;24.61
54870;BME280;40756;-37.950;145.008;2023-02-21T04:29:24;102533.77;;;24.96;24.33
54870;BME280;40756;-37.950;145.008;2023-02-21T04:31:53;102539.43;;;25.41;24.35
54870;BME280;40756;-37.950;145.008;2023-02-21T04:34:23;102538.55;;;24.70;24.45
54870;BME280;40756;-37.950;145.008;2023-02-21T04:36:52;102527.77;;;24.28;24.52
54870;BME280;40756;-37.950;145.008;2023-02-21T04:39:21;102521.28;;;24.38;24.44
54870;BME280;40756;-37.950;145.008;2023-02-21T04:41:52;102520.11;;;24.54;25.80
54870;BME280;40756;-37.950;145.008;2023-02-21T04:44:21;102516.82;;;25.01;24.70
54870;BME280;40756;-37.950;145.008;2023-02-21T04:46:50;102519.42;;;23.93;25.36
54870;BME280;40756;-37.950;145.008;2023-02-21T04:49:20;102511.75;;;24.45;25.32
54870;BME280;40756;-37.950;145.008;2023-02-21T04:51:49;102511.49;;;24.74;24.35
54870;BME280;40756;-37.950;145.008;2023-02-21T04:54:19;102504.12;;;24.19;23.52
54870;BME280;40756;-37.950;145.008;2023-02-21T04:56:48;102497.93;;;24.22;23.82
54870;BME280;40756;-37.950;145.008;2023-02-21T04:59:17;102492.31;;;25.04;23.87
54870;BME280;40756;-37.950;145.008;2023-02-21T05:01:47;102488.19;;;24.01;24.48
54870;BME280;40756;-37.950;145.008;2023-02-21T05:04:16;102491.94;;;24.23;24.41
54870;BME280;40756;-37.950;145.008;2023-02-21T05:06:46;102487.57;;;24.05;24.53
54870;BME280;40756;-37.950;145.008;2023-02-21T05:09:15;102489.38;;;24.64;24.51
54870;BME280;40756;-37.950;145.008;2023-02-21T05:11:44;102492.53;;;24.58;24.62
54870;BME280;40756;-37.950;145.008;2023-02-21T05:14:14;102495.83;;;24.84;24.34
54870;BME280;40756;-37.950;145.008;2023-02-21T05:16:43;102489.18;;;24.53;24.33
54870;BME280;40756;-37.950;145.008;2023-02-21T05:19:16;102486.98;;;25.26;23.92
54870;BME280;40756;-37.950;145.008;2023-02-21T05:21:45;102488.07;;;25.03;23.55
54870;BME280;40756;-37.950;145.008;2023-02-21T05:24:15;102489.72;;;24.73;23.96
54870;BME280;40756;-37.950;145.008;2023-02-21T05:26:44;102481.49;;;25.25;24.08
54870;BME280;40756;-37.950;145.008;2023-02-21T05:29:14;102477.40;;;24.52;23.83
54870;BME280;40756;-37.950;145.008;2023-02-21T05:31:43;102477.29;;;24.09;24.10
54870;BME280;40756;-37.950;145.008;2023-02-21T05:34:14;102481.68;;;23.83;24.80
54870;BME280;40756;-37.950;145.008;2023-02-21T05:36:44;102475.47;;;24.07;24.18
54870;BME280;40756;-37.950;145.008;2023-02-21T05:39:13;102472.63;;;24.25;24.03
54870;BME280;40756;-37.950;145.008;2023-02-21T05:41:48;102470.13;;;23.42;24.85
54870;BME280;40756;-37.950;145.008;2023-02-21T05:44:18;102475.53;;;24.40;24.93
54870;BME280;40756;-37.950;145.008;2023-02-21T05:46:48;102473.58;;;24.21;24.68
54870;BME280;40756;-37.950;145.008;2023-02-21T05:49:18;102470.62;;;23.58;24.77
54870;BME280;40756;-37.950;145.008;2023-02-21T05:51:47;102468.51;;;23.81;24.18
54870;BME280;40756;-37.950;145.008;2023-02-21T05:54:20;102466.75;;;24.06;24.64
54870;BME280;40756;-37.950;145.008;2023-02-21T05:56:51;102463.13;;;23.19;25.28
54870;BME280;40756;-37.950;145.008;2023-02-21T05:59:21;102464.96;;;23.25;25.21
54870;BME280;40756;-37.950;145.008;2023-02-21T06:01:51;102459.61;;;24.61;24.79
54870;BME280;40756;-37.950;145.008;2023-02-21T06:04:21;102456.28;;;23.96;25.71
54870;BME280;40756;-37.950;145.008;2023-02-21T06:06:50;102460.19;;;23.88;25.52
54870;BME280;40756;-37.950;145.008;2023-02-21T06:09:20;102454.48;;;24.01;26.37
54870;BME280;40756;-37.950;145.008;2023-02-21T06:11:50;102459.70;;;24.52;26.58
54870;BME280;40756;-37.950;145.008;2023-02-21T06:14:20;102459.66;;;23.94;25.41
54870;BME280;40756;-37.950;145.008;2023-02-21T06:16:49;102452.81;;;23.85;25.67
54870;BME280;40756;-37.950;145.008;2023-02-21T06:19:19;102442.89;;;22.62;25.73
54870;BME280;40756;-37.950;145.008;2023-02-21T06:21:49;102443.04;;;22.87;26.42
54870;BME280;40756;-37.950;145.008;2023-02-21T06:24:18;102451.52;;;24.10;25.70
54870;BME280;40756;-37.950;145.008;2023-02-21T06:26:48;102440.15;;;23.42;25.82
54870;BME280;40756;-37.950;145.008;2023-02-21T06:29:17;102436.05;;;23.53;25.75
54870;BME280;40756;-37.950;145.008;2023-02-21T06:31:47;102442.67;;;22.76;26.34
54870;BME280;40756;-37.950;145.008;2023-02-21T06:34:17;102432.25;;;23.00;26.85
54870;BME280;40756;-37.950;145.008;2023-02-21T06:36:51;102437.09;;;22.67;27.06
54870;BME280;40756;-37.950;145.008;2023-02-21T06:39:21;102438.81;;;23.16;27.30
54870;BME280;40756;-37.950;145.008;2023-02-21T06:41:51;102438.88;;;21.72;27.69
54870;BME280;40756;-37.950;145.008;2023-02-21T06:44:22;102438.78;;;23.02;27.99
54870;BME280;40756;-37.950;145.008;2023-02-21T06:46:51;102440.91;;;22.83;27.93
54870;BME280;40756;-37.950;145.008;2023-02-21T06:49:21;102445.30;;;21.21;28.59
54870;BME280;40756;-37.950;145.008;2023-02-21T06:51:50;102449.43;;;20.98;29.07
54870;BME280;40756;-37.950;145.008;2023-02-21T06:54:20;102437.60;;;22.26;28.36
54870;BME280;40756;-37.950;145.008;2023-02-21T06:56:49;102441.71;;;21.93;28.52
54870;BME280;40756;-37.950;145.008;2023-02-21T06:59:18;102433.87;;;22.14;28.83
54870;BME280;40756;-37.950;145.008;2023-02-21T07:01:48;102434.63;;;22.42;29.06
54870;BME280;40756;-37.950;145.008;2023-02-21T07:04:17;102435.20;;;22.38;30.09
54870;BME280;40756;-37.950;145.008;2023-02-21T07:06:47;102427.80;;;21.84;30.53
54870;BME280;40756;-37.950;145.008;2023-02-21T07:09:16;102425.07;;;22.41;30.07
54870;BME280;40756;-37.950;145.008;2023-02-21T07:11:46;102423.87;;;22.86;28.71
54870;BME280;40756;-37.950;145.008;2023-02-21T07:14:15;102419.55;;;21.71;28.45
54870;BME280;40756;-37.950;145.008;2023-02-21T07:16:45;102412.73;;;22.21;28.62
54870;BME280;40756;-37.950;145.008;2023-02-21T07:19:14;102398.99;;;22.52;28.13
54870;BME280;40756;-37.950;145.008;2023-02-21T07:21:44;102403.99;;;21.33;29.18
54870;BME280;40756;-37.950;145.008;2023-02-21T07:24:13;102404.89;;;22.04;29.03
54870;BME280;40756;-37.950;145.008;2023-02-21T07:26:42;102405.22;;;21.63;28.09
54870;BME280;40756;-37.950;145.008;2023-02-21T07:29:12;102409.96;;;22.11;27.53
54870;BME280;40756;-37.950;145.008;2023-02-21T07:31:41;102407.56;;;22.05;28.36
54870;BME280;40756;-37.950;145.008;2023-02-21T07:34:11;102409.76;;;22.28;27.39
54870;BME280;40756;-37.950;145.008;2023-02-21T07:36:40;102406.39;;;22.61;28.07
54870;BME280;40756;-37.950;145.008;2023-02-21T07:39:09;102411.45;;;21.75;28.70
54870;BME280;40756;-37.950;145.008;2023-02-21T07:41:39;102409.23;;;21.70;28.21
54870;BME280;40756;-37.950;145.008;2023-02-21T07:44:09;102416.80;;;21.03;29.48
54870;BME280;40756;-37.950;145.008;2023-02-21T07:46:39;102416.07;;;21.86;28.68
54870;BME280;40756;-37.950;145.008;2023-02-21T07:49:09;102412.08;;;21.85;29.45
54870;BME280;40756;-37.950;145.008;2023-02-21T07:51:38;102412.08;;;21.92;29.52
54870;BME280;40756;-37.950;145.008;2023-02-21T07:54:08;102410.50;;;21.48;28.96
54870;BME280;40756;-37.950;145.008;2023-02-21T07:56:43;102411.94;;;21.84;29.03
54870;BME280;40756;-37.950;145.008;2023-02-21T07:59:12;102413.60;;;20.50;30.32
54870;BME280;40756;-37.950;145.008;2023-02-21T08:01:42;102412.40;;;21.40;29.60
54870;BME280;40756;-37.950;145.008;2023-02-21T08:04:11;102416.45;;;21.92;29.09
54870;BME280;40756;-37.950;145.008;2023-02-21T08:06:40;102413.91;;;20.83;30.39
54870;BME280;40756;-37.950;145.008;2023-02-21T08:09:10;102416.30;;;21.35;30.27
54870;BME280;40756;-37.950;145.008;2023-02-21T08:11:39;102414.18;;;21.00;30.78
54870;BME280;40756;-37.950;145.008;2023-02-21T08:14:09;102412.21;;;21.36;31.12
54870;BME280;40756;-37.950;145.008;2023-02-21T08:16:38;102414.19;;;20.78;32.02
54870;BME280;40756;-37.950;145.008;2023-02-21T08:19:08;102424.90;;;20.48;32.53
54870;BME280;40756;-37.950;145.008;2023-02-21T08:21:37;102431.51;;;20.92;33.25
54870;BME280;40756;-37.950;145.008;2023-02-21T08:24:08;102433.03;;;20.56;34.02
54870;BME280;40756;-37.950;145.008;2023-02-21T08:26:38;102432.42;;;20.72;34.41
54870;BME280;40756;-37.950;145.008;2023-02-21T08:29:08;102435.42;;;20.60;35.03
54870;BME280;40756;-37.950;145.008;2023-02-21T08:31:38;102432.61;;;19.78;35.76
54870;BME280;40756;-37.950;145.008;2023-02-21T08:34:09;102439.25;;;20.41;35.83
54870;BME280;40756;-37.950;145.008;2023-02-21T08:36:40;102441.93;;;20.22;36.32
54870;BME280;40756;-37.950;145.008;2023-02-21T08:39:11;102438.33;;;19.58;37.70
54870;BME280;40756;-37.950;145.008;2023-02-21T08:41:42;102444.44;;;19.83;37.62
54870;BME280;40756;-37.950;145.008;2023-02-21T08:44:13;102446.73;;;20.42;37.57
54870;BME280;40756;-37.950;145.008;2023-02-21T08:46:44;102453.05;;;18.79;39.57
54870;BME280;40756;-37.950;145.008;2023-02-21T08:49:14;102454.10;;;19.76;39.35
54870;BME280;40756;-37.950;145.008;2023-02-21T08:51:43;102453.12;;;19.49;39.94
54870;BME280;40756;-37.950;145.008;2023-02-21T08:54:13;102444.87;;;19.68;39.82
54870;BME280;40756;-37.950;145.008;2023-02-21T08:56:42;102443.24;;;19.05;40.14
54870;BME280;40756;-37.950;145.008;2023-02-21T08:59:12;102438.43;;;19.12;41.02
54870;BME280;40756;-37.950;145.008;2023-02-21T09:01:41;102440.57;;;19.97;39.78
54870;BME280;40756;-37.950;145.008;2023-02-21T09:04:11;102441.00;;;19.01;40.70
54870;BME280;40756;-37.950;145.008;2023-02-21T09:06:41;102440.23;;;18.95;41.68
54870;BME280;40756;-37.950;145.008;2023-02-21T09:09:10;102436.05;;;18.49;41.85
54870;BME280;40756;-37.950;145.008;2023-02-21T09:11:39;102438.07;;;18.07;43.41
54870;BME280;40756;-37.950;145.008;2023-02-21T09:14:09;102421.07;;;18.36;43.17
54870;BME280;40756;-37.950;145.008;2023-02-21T09:16:39;102425.08;;;18.98;42.94
54870;BME280;40756;-37.950;145.008;2023-02-21T09:19:09;102426.55;;;18.98;42.71
54870;BME280;40756;-37.950;145.008;2023-02-21T09:21:43;102427.68;;;18.56;43.80
54870;BME280;40756;-37.950;145.008;2023-02-21T09:24:14;102429.79;;;18.59;43.97
54870;BME280;40756;-37.950;145.008;2023-02-21T09:26:43;102430.95;;;18.57;44.22
54870;BME280;40756;-37.950;145.008;2023-02-21T09:29:12;102428.41;;;18.14;45.06
54870;BME280;40756;-37.950;145.008;2023-02-21T09:31:42;102429.87;;;18.14;45.19
54870;BME280;40756;-37.950;145.008;2023-02-21T09:34:12;102430.02;;;18.67;44.65
54870;BME280;40756;-37.950;145.008;2023-02-21T09:36:41;102424.45;;;17.98;45.84
54870;BME280;40756;-37.950;145.008;2023-02-21T09:39:11;102426.21;;;18.19;45.73
54870;BME280;40756;-37.950;145.008;2023-02-21T09:41:41;102434.55;;;18.97;45.43
54870;BME280;40756;-37.950;145.008;2023-02-21T09:44:15;102437.23;;;18.32;46.20
54870;BME280;40756;-37.950;145.008;2023-02-21T09:46:48;102438.44;;;18.66;45.72
54870;BME280;40756;-37.950;145.008;2023-02-21T09:49:23;102449.16;;;18.01;47.74
54870;BME280;40756;-37.950;145.008;2023-02-21T09:51:55;102450.60;;;18.69;47.01
54870;BME280;40756;-37.950;145.008;2023-02-21T09:54:29;102454.78;;;18.56;48.02
54870;BME280;40756;-37.950;145.008;2023-02-21T09:57:03;102454.81;;;18.67;46.79
54870;BME280;40756;-37.950;145.008;2023-02-21T09:59:33;102456.10;;;18.88;46.56
54870;BME280;40756;-37.950;145.008;2023-02-21T10:02:22;102449.72;;;18.20;48.28
54870;BME280;40756;-37.950;145.008;2023-02-21T10:05:03;102443.58;;;18.80;47.07
54870;BME280;40756;-37.950;145.008;2023-02-21T10:07:41;102444.34;;;19.13;46.88
54870;BME280;40756;-37.950;145.008;2023-02-21T10:10:16;102436.91;;;18.83;47.02
54870;BME280;40756;-37.950;145.008;2023-02-21T10:12:55;102440.33;;;18.56;47.60
54870;BME280;40756;-37.950;145.008;2023-02-21T10:15:38;102439.52;;;19.09;46.55
54870;BME280;40756;-37.950;145.008;2023-02-21T10:18:18;102437.13;;;18.60;47.71
54870;BME280;40756;-37.950;145.008;2023-02-21T10:20:53;102438.86;;;18.85;47.61
54870;BME280;40756;-37.950;145.008;2023-02-21T10:23:26;102438.44;;;18.13;47.07
54870;BME280;40756;-37.950;145.008;2023-02-21T10:26:03;102447.44;;;18.28;46.85
54870;BME280;40756;-37.950;145.008;2023-02-21T10:28:33;102446.84;;;19.00;45.50
54870;BME280;40756;-37.950;145.008;2023-02-21T10:31:08;102453.13;;;19.01;44.81
54870;BME280;40756;-37.950;145.008;2023-02-21T10:33:39;102457.85;;;19.39;43.72
54870;BME280;40756;-37.950;145.008;2023-02-21T10:36:15;102458.34;;;19.46;42.89
54870;BME280;40756;-37.950;145.008;2023-02-21T10:38:57;102461.65;;;18.82;44.16
54870;BME280;40756;-37.950;145.008;2023-02-21T10:41:29;102465.01;;;19.21;43.01
54870;BME280;40756;-37.950;145.008;2023-02-21T10:44:07;102466.09;;;19.44;42.66
54870;BME280;40756;-37.950;145.008;2023-02-21T10:46:42;102476.94;;;19.21;42.99
54870;BME280;40756;-37.950;145.008;2023-02-21T10:49:23;102473.84;;;19.16;43.07
54870;BME280;40756;-37.950;145.008;2023-02-21T10:52:13;102476.52;;;19.40;43.42
54870;BME280;40756;-37.950;145.008;2023-02-21T10:55:00;102476.46;;;18.86;44.07
54870;BME280;40756;-37.950;145.008;2023-02-21T10:57:32;102473.84;;;19.24;43.58
54870;BME280;40756;-37.950;145.008;2023-02-21T11:00:02;102473.48;;;19.24;43.52
54870;BME280;40756;-37.950;145.008;2023-02-21T11:02:34;102473.48;;;19.46;43.24
54870;BME280;40756;-37.950;145.008;2023-02-21T11:05:15;102470.91;;;19.34;43.30
54870;BME280;40756;-37.950;145.008;2023-02-21T11:07:58;102470.34;;;18.77;43.65
54870;BME280;40756;-37.950;145.008;2023-02-21T11:10:31;102475.88;;;19.48;43.23
54870;BME280;40756;-37.950;145.008;2023-02-21T11:13:06;102473.86;;;19.54;43.31
54870;BME280;40756;-37.950;145.008;2023-02-21T11:15:38;102471.90;;;18.89;44.22
54870;BME280;40756;-37.950;145.008;2023-02-21T11:18:15;102473.19;;;18.88;44.36
54870;BME280;40756;-37.950;145.008;2023-02-21T11:20:45;102468.03;;;19.02;44.00
54870;BME280;40756;-37.950;145.008;2023-02-21T11:23:25;102457.57;;;18.51;44.64
54870;BME280;40756;-37.950;145.008;2023-02-21T11:26:04;102463.37;;;18.61;44.81
54870;BME280;40756;-37.950;145.008;2023-02-21T11:28:37;102464.38;;;18.94;44.08
54870;BME280;40756;-37.950;145.008;2023-02-21T11:31:15;102458.81;;;17.97;45.76
54870;BME280;40756;-37.950;145.008;2023-02-21T11:33:54;102463.66;;;18.21;45.79
54870;BME280;40756;-37.950;145.008;2023-02-21T11:36:29;102462.42;;;18.60;45.59
54870;BME280;40756;-37.950;145.008;2023-02-21T11:39:05;102462.82;;;18.42;45.53
54870;BME280;40756;-37.950;145.008;2023-02-21T11:41:44;102457.38;;;18.52;45.19
54870;BME280;40756;-37.950;145.008;2023-02-21T11:44:32;102455.31;;;18.12;45.87
54870;BME280;40756;-37.950;145.008;2023-02-21T11:47:10;102458.14;;;18.09;45.47
54870;BME280;40756;-37.950;145.008;2023-02-21T11:49:49;102447.17;;;18.46;45.92
54870;BME280;40756;-37.950;145.008;2023-02-21T11:52:24;102453.63;;;18.69;45.55
54870;BME280;40756;-37.950;145.008;2023-02-21T11:54:54;102444.35;;;18.58;45.93
54870;BME280;40756;-37.950;145.008;2023-02-21T11:57:29;102443.39;;;18.16;46.09
54870;BME280;40756;-37.950;145.008;2023-02-21T12:00:08;102447.77;;;18.06;45.48
54870;BME280;40756;-37.950;145.008;2023-02-21T12:02:52;102450.09;;;18.16;45.85
54870;BME280;40756;-37.950;145.008;2023-02-21T12:05:33;102434.37;;;18.61;45.15
54870;BME280;40756;-37.950;145.008;2023-02-21T12:08:27;102441.98;;;17.87;45.59
54870;BME280;40756;-37.950;145.008;2023-02-21T12:11:13;102441.25;;;18.61;45.49
54870;BME280;40756;-37.950;145.008;2023-02-21T12:13:52;102440.53;;;18.00;46.84
54870;BME280;40756;-37.950;145.008;2023-02-21T12:16:31;102440.94;;;17.99;46.55
54870;BME280;40756;-37.950;145.008;2023-02-21T12:19:18;102439.10;;;18.30;45.73
54870;BME280;40756;-37.950;145.008;2023-02-21T12:22:01;102436.15;;;18.32;45.62
54870;BME280;40756;-37.950;145.008;2023-02-21T12:24:57;102443.13;;;18.10;45.26
54870;BME280;40756;-37.950;145.008;2023-02-21T12:27:36;102442.25;;;18.65;45.11
54870;BME280;40756;-37.950;145.008;2023-02-21T12:30:22;102435.96;;;18.10;45.87
54870;BME280;40756;-37.950;145.008;2023-02-21T12:33:02;102440.88;;;17.81;46.48
54870;BME280;40756;-37.950;145.008;2023-02-21T12:36:07;102438.58;;;18.08;46.35
54870;BME280;40756;-37.950;145.008;2023-02-21T12:38:47;102441.07;;;18.52;45.00
54870;BME280;40756;-37.950;145.008;2023-02-21T12:41:39;102443.92;;;18.13;46.17
54870;BME280;40756;-37.950;145.008;2023-02-21T12:44:14;102435.15;;;18.08;46.40
54870;BME280;40756;-37.950;145.008;2023-02-21T12:46:51;102438.09;;;17.49;47.08
54870;BME280;40756;-37.950;145.008;2023-02-21T12:49:25;102429.68;;;17.86;46.89